Flight Track Log - Related Links

Times and Time Zones

All times are in EDT time to prevent confusion due to time zone crossing. See the SKW5187 flight status page for this flight to view local times or setup timezone preferences in your user account.

Time Position Orientation Groundspeed Altitude Reporting Facility
EDT Latitude Longitude Course Direction KTS MPH feet Rate Location/Type
Mon 06:52:08 PM 30.3078 -97.6414 90° East 233 268 4,000  Level Houston Center
Mon 06:53:10 PM 30.3550 -97.5789 49° Northeast 269 310 6,400 2,634 Climbing Houston Center
Mon 06:54:00 PM 30.3569 -97.3890 95° East  Level FlightAware Approximate
Mon 06:54:11 PM 30.3539 -97.4892 91° East 275 316 9,400  Level Houston Center
Mon 06:55:00 PM 30.3508 -97.3097 95° East  Level FlightAware Approximate
Mon 06:55:13 PM 30.3525 -97.3947 91° East 289 333 12,100  Level Houston Center
Mon 06:56:00 PM 30.3500 -97.2178 90° East  Level FlightAware Approximate
Mon 06:56:15 PM 30.3717 -97.3003 77° East 317 365 14,700  Level Houston Center
Mon 06:57:00 PM 30.3500 -97.1404 90° East  Level FlightAware Approximate
Mon 06:57:17 PM 30.4561 -97.2528 26° Northeast 335 386 17,100  Level Houston Center
Mon 06:58:18 PM 30.5514 -97.1886 30° Northeast 348 400 17,200 -49 Climbing Houston Center
Mon 06:59:20 PM 30.6192 -97.1033 47° Northeast 359 413 17,000 -97 Descending Houston Center
Mon 07:00:22 PM 30.6886 -97.0172 47° Northeast 364 419 17,000  Level Houston Center
Mon 07:01:23 PM 30.7617 -96.9306 46° Northeast 372 428 17,000  Level Houston Center
Mon 07:02:25 PM 30.7864 -96.8244 75° East 341 392 17,000 48 Level Houston Center
Mon 07:03:27 PM 30.7519 -96.7325 114° Southeast 321 369 17,100 -146 Climbing Houston Center
Mon 07:04:28 PM 30.6975 -96.6522 128° Southeast 312 359 16,700 -1,220 Descending Houston Center
Mon 07:05:30 PM 30.6397 -96.5664 128° Southeast 332 382 14,600 -1,984 Descending Houston Center
Mon 07:06:32 PM 30.5522 -96.4900 143° Southeast 332 382 12,600 -1,707 Descending Houston Center
Mon 07:07:33 PM 30.4803 -96.4319 145° Southeast 314 361 11,100 -1,220 Descending Houston Center
Mon 07:08:35 PM 30.4150 -96.3586 136° Southeast 335 386 10,100 -532 Descending Houston Center
Mon 07:09:37 PM 30.3750 -96.2631 116° Southeast 329 379 10,000  Descending Houston Center
Mon 07:10:38 PM 30.3344 -96.1669 116° Southeast 324 373 10,100  Climbing Houston Center
Mon 07:11:33 PM 30.2922 -96.0897 122° Southeast 273 314 10,000 -639 Descending Houston Center
Mon 07:12:40 PM 30.2339 -96.0189 134° Southeast 280 322 8,800 -884 Descending Houston Center
Mon 07:13:42 PM 30.1822 -95.9572 134° Southeast 270 311 8,100 -344 Descending Houston Center
Mon 07:14:42 PM 30.1322 -95.8881 130° Southeast 264 304 8,100  Level Houston Center
Mon 07:15:38 PM 30.0936 -95.8297 127° Southeast 264 304 8,100 -821 Level Houston Center
Mon 07:16:39 PM 30.0492 -95.7553 125° Southeast 270 311 6,500 -1,525 Descending Houston Center
Mon 07:17:40 PM 30.0192 -95.6769 114° Southeast 256 295 5,000 -1,500 Descending Houston Center
Mon 07:18:51 PM 29.9942 -95.6017 111° Southeast 251 289 3,200 -934 Descending Houston Center
Mon 07:19:42 PM 29.9939 -95.5350 90° East 180 207 3,100 -559 Descending Houston Center
Mon 07:20:49 PM 29.9925 -95.4725 91° East 167 192 2,100 -797 Descending Houston Center
Mon 07:21:50 PM 29.9925 -95.4292 90° East 123 142 1,400 -639 Descending Houston Center
Mon 07:22:51 PM 29.9933 -95.3903 89° East 126 145 800 246 Descending Houston Center
Mon 07:23:52 PM 29.9936 -95.3494 90° East 137 158 1,900 634 Climbing Houston Center
Mon 07:24:54 PM 30.0094 -95.2919 72° East 227 261 2,100 98 Climbing Houston Center
Mon 07:25:54 PM 30.0686 -95.2969 356° North 221 254 2,100  Level Houston Center
Mon 07:27:02 PM 30.1344 -95.3275 338° Northwest 225 259 2,100 462 Level Houston Center
Mon 07:27:51 PM 30.1544 -95.3831 293° West 240 276 3,000 545 Climbing Houston Center
Mon 07:28:52 PM 30.1697 -95.4608 283° West 253 291 3,100 49 Climbing Houston Center
Mon 07:29:53 PM 30.1850 -95.5364 283° West 236 272 3,100  Level Houston Center
Mon 07:30:54 PM 30.1914 -95.6081 276° West 224 258 3,100 -43 Level Houston Center
Mon 07:32:12 PM 30.1994 -95.6983 276° West 231 266 3,000  Descending Houston Center
Mon 07:32:56 PM 30.2028 -95.7592 274° West 228 262 3,100 57 Climbing Houston Center
Mon 07:33:58 PM 30.1919 -95.8281 260° West 213 245 3,100  Level Houston Center
Mon 07:34:59 PM 30.1589 -95.8803 234° Southwest 202 232 3,100  Level Houston Center
Mon 07:36:00 PM 30.1031 -95.8914 190° South 203 234 3,100  Level Houston Center
Mon 07:37:00 PM 30.0461 -95.8883 177° South 204 235 3,100 -42 Level Houston Center
Mon 07:38:22 PM 30.0086 -95.8217 123° Southeast 200 230 3,000  Descending Houston Center
Mon 07:39:09 PM 29.9922 -95.7764 113° Southeast 176 203 3,100 59 Climbing Houston Center
Mon 07:40:04 PM 29.9919 -95.7258 90° East 168 193 3,100  Level Houston Center
Mon 07:41:11 PM 29.9911 -95.6681 91° East 164 189 3,100  Level Houston Center
Mon 07:42:00 PM 29.9914 -95.6247 90° East 163 188 3,100  Level Houston Center
Mon 07:43:13 PM 29.9917 -95.5594 90° East 167 192 3,100 -98 Level Houston Center
Mon 07:44:02 PM 29.9922 -95.5183 89° East 165 190 2,900 -532 Descending Houston Center
Mon 07:44:32 PM 29.9933 -95.4936 87° East 165 190 2,400 -904 Descending Houston Center
Mon 07:45:15 PM 29.9928 -95.4531 91° East 168 193 1,800 -837 Descending Houston Center

Login

Don't have an account? Register now (free) for customized features, flight alerts, and more!